Terminal Aerodrome Forecast
Issued by NWS

Home | Current Version | Previous Version | Text Only | Print | Product List | Glossary On
Versions: 1 2 3 4 5 6 7 8 9 10 11 12 13 14 15 16 17 18 19 20
436
FTUS46 KMFR 181525 AAA
TAFOTH
TAF AMD
KOTH 181525Z 1815/1912 13005KT 6SM BR SCT006 OVC015
     FM181800 21010KT P6SM OVC020
     FM182100 23014G21KT P6SM SCT020 OVC035
     FM190300 20016G25KT P6SM SCT006 OVC015
     FM191100 20015G25KT 4SM -RA BR OVC015=

USA.gov is the U.S. government's official web portal to all federal, state and local government web resources and services.